This is the latest recevied weather packets stored in our database for station/object SPRFLD. If no packets are shown the sender has not sent any weather packets the latest 10 day(s).
| Time | Temp. | Humidity | Pressure | Rain* | Wind** | Luminosity | Snow |
|---|---|---|---|---|---|---|---|
| 1777160293 | 19.44° C | 32% | 1008.5 hPa | 0 mm | - | - | - |
| 1777159693 | 19.44° C | 32% | 1008.5 hPa | 0 mm | - | - | - |
| 1777156128 | 20° C | 34% | 1009 hPa | 0 mm | - | - | - |
| 1777155506 | 20° C | 34% | 1009.1 hPa | 0 mm | - | - | - |
| 1777151893 | 18.33° C | 36% | 1009.4 hPa | 0 mm | - | - | - |
| 1777150086 | 17.78° C | 38% | 1009.7 hPa | 0 mm | - | - | - |
| 1777145301 | 13.33° C | 50% | 1010.1 hPa | 0 mm | - | - | - |
| 1777142894 | 11.67° C | 54% | 1010.5 hPa | 0 mm | - | - | - |
| 1777139884 | 10.56° C | 48% | 1010.7 hPa | 0 mm | - | - | - |
| 1777139285 | 10.56° C | 53% | 1010.8 hPa | 0 mm | - | - | - |
| 1777134498 | 8.33° C | 53% | 1010.6 hPa | 0 mm | - | - | - |
| 1777130283 | 6.67° C | 53% | 1010.9 hPa | 0 mm | - | - | - |
| 1777129682 | 6.67° C | 55% | 1010.8 hPa | 0 mm | - | - | - |
| 1777128509 | 6.67° C | 53% | 1010.7 hPa | 0 mm | - | - | - |
| 1777127304 | 6.11° C | 55% | 1010.5 hPa | 0 mm | - | - | - |
| 1777118306 | 6.67° C | 56% | 1010.9 hPa | 0 mm | - | - | - |
| 1777112885 | 7.22° C | 57% | 1011.4 hPa | 0 mm | - | - | - |
| 1777110505 | 7.78° C | 58% | 1011.6 hPa | 0 mm | - | - | - |
| 1777106292 | 8.33° C | 58% | 1012.3 hPa | 0 mm | - | - | - |
| 1777105711 | 8.33° C | 55% | 1012.3 hPa | 0 mm | - | - | - |
| 1777099722 | 9.44° C | 51% | 1012.4 hPa | 0 mm | - | - | - |
| 1777097293 | 10° C | 50% | 1012.6 hPa | 0 mm | - | - | - |
| 1777094284 | 10.56° C | 48% | 1012.9 hPa | 0 mm | - | - | - |
| 1777085886 | 12.22° C | 43% | 1012.7 hPa | 0 mm | - | - | - |
| 1777085284 | 12.78° C | 43% | 1012.8 hPa | 0 mm | - | - | - |
* Rain latest hour (hover to see other rain measurements)
** Current wind speed in m/s (hover to see current wind gust speed)